Time,TemperatureF,DewpointF,PressureIn,WindDirection,WindDirectionDegrees,WindSpeedMPH,WindSpeedGustMPH,Humidity,HourlyPrecipIn,Conditions,Clouds,dailyrainin,SoftwareType,DateUTC
2013-01-03 00:00:00,9.0,5.1,30.28,ENE,58,0.0,0.0,84,0.00,,,0.00,WeatherDisplay:10.37,2013-01-03 05:00:00,
2013-01-03 00:01:00,9.0,5.1,30.28,ENE,65,0.0,0.0,84,0.00,,,0.00,WeatherDisplay:10.37,2013-01-03 05:01:00,
2013-01-03 00:03:00,8.9,5.1,30.28,ESE,115,0.0,0.0,84,0.00,,,0.00,WeatherDisplay:10.37,2013-01-03 05:03:00,
2013-01-03 00:08:00,9.0,5.4,30.28,NE,51,0.0,0.0,85,0.00,,,0.00,WeatherDisplay:10.37,2013-01-03 05:08:00,
2013-01-03 00:13:00,8.9,5.3,30.27,NE,56,0.0,0.0,85,0.00,,,0.00,WeatherDisplay:10.37,2013-01-03 05:13:00,
2013-01-03 00:18:00,9.0,5.7,30.27,NE,56,0.0,0.0,86,0.00,,,0.00,WeatherDisplay:10.37,2013-01-03 05:18:00,
2013-01-03 00:23:00,9.0,5.4,30.27,NE,56,0.0,0.0,85,0.00,,,0.00,WeatherDisplay:10.37,2013-01-03 05:23:00,
2013-01-03 00:28:00,9.0,5.4,30.27,ENE,67,0.0,0.0,85,0.00,,,0.00,WeatherDisplay:10.37,2013-01-03 05:28:00,
2013-01-03 00:33:00,8.8,5.2,30.27,ENE,66,0.0,0.0,85,0.00,,,0.00,WeatherDisplay:10.37,2013-01-03 05:33:00,
2013-01-03 00:38:00,8.9,5.6,30.27,ENE,66,0.0,0.0,86,0.00,,,0.00,WeatherDisplay:10.37,2013-01-03 05:38:00,
2013-01-03 00:43:00,8.9,5.3,30.26,ENE,67,0.0,0.0,85,0.00,,,0.00,WeatherDisplay:10.37,2013-01-03 05:43:00,
2013-01-03 00:48:00,8.8,5.2,30.26,ENE,66,0.0,0.0,85,0.00,,,0.00,WeatherDisplay:10.37,2013-01-03 05:48:00,
2013-01-03 00:53:00,8.8,5.2,30.26,ENE,66,0.0,0.0,85,0.00,,,0.00,WeatherDisplay:10.37,2013-01-03 05:53:00,
2013-01-03 00:58:00,8.8,5.5,30.26,ENE,66,0.0,0.0,86,0.00,,,0.00,WeatherDisplay:10.37,2013-01-03 05:58:00,
2013-01-03 01:03:00,8.8,5.2,30.26,ENE,66,0.0,0.0,85,0.00,,,0.00,WeatherDisplay:10.37,2013-01-03 06:03:00,
2013-01-03 01:08:00,8.7,5.1,30.26,ENE,66,0.0,0.0,85,0.00,,,0.00,WeatherDisplay:10.37,2013-01-03 06:08:00,
2013-01-03 01:13:00,8.7,5.1,30.26,ENE,66,0.0,0.0,85,0.00,,,0.00,WeatherDisplay:10.37,2013-01-03 06:13:00,
2013-01-03 01:18:00,8.7,5.1,30.26,ENE,66,0.0,0.0,85,0.00,,,0.00,WeatherDisplay:10.37,2013-01-03 06:18:00,
2013-01-03 01:23:00,8.7,5.4,30.25,ENE,67,0.0,0.0,86,0.00,,,0.00,WeatherDisplay:10.37,2013-01-03 06:23:00,
2013-01-03 01:28:00,8.8,5.5,30.26,ENE,66,0.0,0.0,86,0.00,,,0.00,WeatherDisplay:10.37,2013-01-03 06:28:00,
2013-01-03 01:33:00,8.7,5.4,30.25,ENE,66,0.0,0.0,86,0.00,,,0.00,WeatherDisplay:10.37,2013-01-03 06:33:00,
2013-01-03 01:38:00,8.8,5.5,30.25,ENE,66,0.0,0.0,86,0.00,,,0.00,WeatherDisplay:10.37,2013-01-03 06:38:00,
2013-01-03 01:43:00,8.6,5.3,30.25,ENE,66,0.0,0.0,86,0.00,,,0.00,WeatherDisplay:10.37,2013-01-03 06:43:00,
2013-01-03 01:48:00,8.5,5.2,30.25,ENE,67,0.0,0.0,86,0.00,,,0.00,WeatherDisplay:10.37,2013-01-03 06:48:00,
2013-01-03 01:53:00,8.5,5.2,30.25,ENE,66,0.0,0.0,86,0.00,,,0.00,WeatherDisplay:10.37,2013-01-03 06:53:00,
2013-01-03 01:58:00,8.5,5.2,30.25,ENE,66,0.0,0.0,86,0.00,,,0.00,WeatherDisplay:10.37,2013-01-03 06:58:00,
2013-01-03 02:03:00,8.6,5.3,30.25,ENE,67,0.0,0.0,86,0.00,,,0.00,WeatherDisplay:10.37,2013-01-03 07:03:00,
2013-01-03 02:08:00,8.5,5.2,30.25,East,93,0.0,0.0,86,0.00,,,0.00,WeatherDisplay:10.37,2013-01-03 07:08:00,
2013-01-03 02:13:00,8.5,5.2,30.25,East,94,0.0,0.0,86,0.00,,,0.00,WeatherDisplay:10.37,2013-01-03 07:13:00,
2013-01-03 02:18:00,8.5,5.2,30.25,East,93,0.0,0.0,86,0.00,,,0.00,WeatherDisplay:10.37,2013-01-03 07:18:00,
2013-01-03 02:23:00,8.5,5.2,30.25,East,93,0.0,0.0,86,0.00,,,0.00,WeatherDisplay:10.37,2013-01-03 07:23:00,
2013-01-03 02:29:00,8.5,5.2,30.25,East,93,0.0,0.0,86,0.00,,,0.00,WeatherDisplay:10.37,2013-01-03 07:29:00,
2013-01-03 02:34:00,8.5,5.2,30.25,East,93,0.0,0.0,86,0.00,,,0.00,WeatherDisplay:10.37,2013-01-03 07:34:00,
2013-01-03 02:39:00,8.4,5.1,30.24,ESE,104,0.0,0.0,86,0.00,,,0.00,WeatherDisplay:10.37,2013-01-03 07:39:00,
2013-01-03 02:44:00,8.4,5.1,30.24,SSE,153,0.0,0.0,86,0.00,,,0.00,WeatherDisplay:10.37,2013-01-03 07:44:00,
2013-01-03 02:49:00,8.3,5.0,30.24,SSE,153,0.0,0.0,86,0.00,,,0.00,WeatherDisplay:10.37,2013-01-03 07:49:00,
2013-01-03 02:54:00,8.2,4.9,30.24,SSW,194,0.0,0.0,86,0.00,,,0.00,WeatherDisplay:10.37,2013-01-03 07:54:00,
2013-01-03 02:59:00,8.2,4.9,30.24,WSW,252,0.0,0.0,86,0.00,,,0.00,WeatherDisplay:10.37,2013-01-03 07:59:00,
2013-01-03 03:04:00,8.2,4.9,30.24,WSW,247,0.0,0.0,86,0.00,,,0.00,WeatherDisplay:10.37,2013-01-03 08:04:00,
2013-01-03 03:09:00,8.2,5.1,30.24,WSW,247,0.0,0.0,87,0.00,,,0.00,WeatherDisplay:10.37,2013-01-03 08:09:00,
2013-01-03 03:14:00,8.3,5.2,30.24,ESE,117,0.0,0.0,87,0.00,,,0.00,WeatherDisplay:10.37,2013-01-03 08:14:00,
2013-01-03 03:19:00,8.3,5.2,30.24,ESE,117,0.0,0.0,87,0.00,,,0.00,WeatherDisplay:10.37,2013-01-03 08:19:00,
2013-01-03 03:24:00,8.1,4.8,30.24,ESE,115,0.0,0.0,86,0.00,,,0.00,WeatherDisplay:10.37,2013-01-03 08:24:00,
2013-01-03 03:29:00,8.2,4.9,30.24,ESE,117,0.0,0.0,86,0.00,,,0.00,WeatherDisplay:10.37,2013-01-03 08:29:00,
2013-01-03 03:34:00,8.1,4.8,30.23,ESE,117,0.0,0.0,86,0.00,,,0.00,WeatherDisplay:10.37,2013-01-03 08:34:00,
2013-01-03 03:39:00,8.2,5.1,30.23,ESE,117,0.0,0.0,87,0.00,,,0.00,WeatherDisplay:10.37,2013-01-03 08:39:00,
2013-01-03 03:44:00,8.2,5.1,30.23,ESE,117,0.0,0.0,87,0.00,,,0.00,WeatherDisplay:10.37,2013-01-03 08:44:00,
2013-01-03 03:49:00,8.3,5.2,30.23,ESE,117,0.0,0.0,87,0.00,,,0.00,WeatherDisplay:10.37,2013-01-03 08:49:00,
2013-01-03 03:54:00,8.4,5.3,30.23,ESE,115,0.0,0.0,87,0.00,,,0.00,WeatherDisplay:10.37,2013-01-03 08:54:00,
2013-01-03 03:59:00,8.4,5.3,30.23,ESE,115,0.0,0.0,87,0.00,,,0.00,WeatherDisplay:10.37,2013-01-03 08:59:00,
2013-01-03 04:04:00,8.5,5.4,30.23,ESE,117,0.0,0.0,87,0.00,,,0.00,WeatherDisplay:10.37,2013-01-03 09:04:00,
2013-01-03 04:09:00,8.5,5.4,30.23,ESE,117,0.0,0.0,87,0.00,,,0.00,WeatherDisplay:10.37,2013-01-03 09:09:00,
2013-01-03 04:14:00,8.5,5.4,30.23,ESE,115,0.0,0.0,87,0.00,,,0.00,WeatherDisplay:10.37,2013-01-03 09:14:00,
2013-01-03 04:19:00,8.4,5.3,30.22,ESE,115,0.0,0.0,87,0.00,,,0.00,WeatherDisplay:10.37,2013-01-03 09:19:00,
2013-01-03 04:24:00,8.5,5.4,30.22,ESE,115,0.0,0.0,87,0.00,,,0.00,WeatherDisplay:10.37,2013-01-03 09:24:00,
2013-01-03 04:29:00,8.4,5.3,30.21,ESE,117,0.0,0.0,87,0.00,,,0.00,WeatherDisplay:10.37,2013-01-03 09:29:00,
2013-01-03 04:34:00,8.5,5.4,30.21,SW,217,0.0,0.0,87,0.00,,,0.00,WeatherDisplay:10.37,2013-01-03 09:34:00,
2013-01-03 04:39:00,8.5,5.4,30.21,SSW,201,0.0,0.0,87,0.00,,,0.00,WeatherDisplay:10.37,2013-01-03 09:39:00,
2013-01-03 04:44:00,8.5,5.2,30.21,SSW,201,0.0,0.0,86,0.00,,,0.00,WeatherDisplay:10.37,2013-01-03 09:44:00,
2013-01-03 04:49:00,8.4,5.1,30.21,SSW,196,0.0,0.0,86,0.00,,,0.00,WeatherDisplay:10.37,2013-01-03 09:49:00,
2013-01-03 04:54:00,8.4,5.3,30.21,SSW,195,0.0,0.0,87,0.00,,,0.00,WeatherDisplay:10.37,2013-01-03 09:54:00,
2013-01-03 04:59:00,8.4,5.3,30.20,SSW,196,0.0,0.0,87,0.00,,,0.00,WeatherDisplay:10.37,2013-01-03 09:59:00,
2013-01-03 05:04:00,8.3,5.0,30.20,SSW,195,0.0,0.0,86,0.00,,,0.00,WeatherDisplay:10.37,2013-01-03 10:04:00,
2013-01-03 05:09:00,8.3,5.2,30.20,SE,141,0.0,0.0,87,0.00,,,0.00,WeatherDisplay:10.37,2013-01-03 10:09:00,
2013-01-03 05:14:00,8.3,5.2,30.20,SE,141,0.0,0.0,87,0.00,,,0.00,WeatherDisplay:10.37,2013-01-03 10:14:00,
2013-01-03 05:19:00,8.3,5.2,30.20,SE,143,0.0,0.0,87,0.00,,,0.00,WeatherDisplay:10.37,2013-01-03 10:19:00,
2013-01-03 05:24:00,8.3,5.2,30.21,SE,142,0.0,0.0,87,0.00,,,0.00,WeatherDisplay:10.37,2013-01-03 10:24:00,
2013-01-03 05:29:00,8.3,5.2,30.20,SE,141,0.0,0.0,87,0.00,,,0.00,WeatherDisplay:10.37,2013-01-03 10:29:00,
2013-01-03 05:34:00,8.3,5.0,30.20,ESE,114,0.0,0.0,86,0.00,,,0.00,WeatherDisplay:10.37,2013-01-03 10:34:00,
2013-01-03 05:39:00,8.4,5.3,30.20,ESE,114,0.0,0.0,87,0.00,,,0.00,WeatherDisplay:10.37,2013-01-03 10:39:00,
2013-01-03 05:44:00,8.4,5.3,30.20,SE,135,0.0,0.0,87,0.00,,,0.00,WeatherDisplay:10.37,2013-01-03 10:44:00,
2013-01-03 05:49:00,8.4,5.1,30.20,SW,233,0.0,0.0,86,0.00,,,0.00,WeatherDisplay:10.37,2013-01-03 10:49:00,
2013-01-03 05:54:00,8.5,5.2,30.21,SSW,205,0.0,0.0,86,0.00,,,0.00,WeatherDisplay:10.37,2013-01-03 10:54:00,
2013-01-03 05:59:00,8.5,5.2,30.21,SSW,192,0.0,0.0,86,0.00,,,0.00,WeatherDisplay:10.37,2013-01-03 10:59:00,
2013-01-03 06:04:00,8.6,5.3,30.21,South,191,0.0,0.0,86,0.00,,,0.00,WeatherDisplay:10.37,2013-01-03 11:04:00,
2013-01-03 06:09:00,8.7,5.4,30.21,South,176,0.0,0.0,86,0.00,,,0.00,WeatherDisplay:10.37,2013-01-03 11:09:00,
2013-01-03 06:14:00,8.7,5.4,30.20,South,176,0.0,0.0,86,0.00,,,0.00,WeatherDisplay:10.37,2013-01-03 11:14:00,
2013-01-03 06:19:00,8.8,5.7,30.21,South,176,0.0,0.0,87,0.00,,,0.00,WeatherDisplay:10.37,2013-01-03 11:19:00,
2013-01-03 06:25:00,8.9,5.8,30.20,South,176,0.0,0.0,87,0.00,,,0.00,WeatherDisplay:10.37,2013-01-03 11:25:00,
2013-01-03 06:30:00,8.9,5.6,30.20,SSE,165,0.0,0.0,86,0.00,,,0.00,WeatherDisplay:10.37,2013-01-03 11:30:00,
2013-01-03 06:35:00,8.9,5.8,30.20,SE,145,0.0,0.0,87,0.00,,,0.00,WeatherDisplay:10.37,2013-01-03 11:35:00,
2013-01-03 06:40:00,9.0,5.9,30.19,SE,145,0.0,0.0,87,0.00,,,0.00,WeatherDisplay:10.37,2013-01-03 11:40:00,
2013-01-03 06:45:00,9.1,6.0,30.20,SE,145,0.0,0.0,87,0.00,,,0.00,WeatherDisplay:10.37,2013-01-03 11:45:00,
2013-01-03 06:50:00,9.1,6.0,30.19,SE,145,0.0,0.0,87,0.00,,,0.00,WeatherDisplay:10.37,2013-01-03 11:50:00,
2013-01-03 06:55:00,9.2,6.1,30.19,SE,138,0.0,0.0,87,0.00,,,0.00,WeatherDisplay:10.37,2013-01-03 11:55:00,
2013-01-03 07:00:00,9.3,6.2,30.19,SE,138,0.0,0.0,87,0.00,,,0.00,WeatherDisplay:10.37,2013-01-03 12:00:00,
2013-01-03 07:05:00,9.4,6.3,30.19,SE,138,0.0,0.0,87,0.00,,,0.00,WeatherDisplay:10.37,2013-01-03 12:05:00,
2013-01-03 07:10:00,9.4,6.3,30.19,SE,138,0.0,0.0,87,0.00,CLR,,0.00,WeatherDisplay:10.37,2013-01-03 12:10:00,
2013-01-03 07:15:00,9.5,6.4,30.18,SE,138,0.0,0.0,87,0.00,CLR,,0.00,WeatherDisplay:10.37,2013-01-03 12:15:00,
2013-01-03 07:20:00,9.5,6.4,30.19,South,179,0.0,0.0,87,0.00,CLR,,0.00,WeatherDisplay:10.37,2013-01-03 12:20:00,
2013-01-03 07:25:00,9.6,6.8,30.19,South,179,0.0,0.0,88,0.00,CLR,,0.00,WeatherDisplay:10.37,2013-01-03 12:25:00,
2013-01-03 07:30:00,9.7,6.9,30.19,South,179,0.0,0.0,88,0.00,CLR,,0.00,WeatherDisplay:10.37,2013-01-03 12:30:00,
2013-01-03 07:35:00,9.8,7.0,30.19,South,179,0.0,0.0,88,0.00,CLR,,0.00,WeatherDisplay:10.37,2013-01-03 12:35:00,
2013-01-03 07:40:00,9.9,7.1,30.19,South,179,0.0,0.0,88,0.00,CLR,,0.00,WeatherDisplay:10.37,2013-01-03 12:40:00,
2013-01-03 07:45:00,10.0,7.2,30.19,South,179,0.0,0.0,88,0.00,CLR,,0.00,WeatherDisplay:10.37,2013-01-03 12:45:00,
2013-01-03 07:50:00,10.2,7.4,30.19,South,179,0.0,0.0,88,0.00,CLR,,0.00,WeatherDisplay:10.37,2013-01-03 12:50:00,
2013-01-03 07:55:00,10.3,7.5,30.19,South,179,0.0,0.0,88,0.00,CLR,,0.00,WeatherDisplay:10.37,2013-01-03 12:55:00,
2013-01-03 08:00:00,10.3,7.5,30.19,South,179,0.0,0.0,88,0.00,CLR,,0.00,WeatherDisplay:10.37,2013-01-03 13:00:00,
2013-01-03 08:05:00,10.5,7.6,30.19,South,179,0.0,0.0,88,0.00,CLR,,0.00,WeatherDisplay:10.37,2013-01-03 13:05:00,
2013-01-03 08:10:00,10.7,7.8,30.18,South,177,0.0,0.0,88,0.00,CLR,,0.00,WeatherDisplay:10.37,2013-01-03 13:10:00,
2013-01-03 08:15:00,10.8,7.9,30.18,South,177,0.0,0.0,88,0.00,CLR,,0.00,WeatherDisplay:10.37,2013-01-03 13:15:00,
2013-01-03 08:20:00,11.0,8.1,30.18,South,177,0.0,0.0,88,0.00,CLR,,0.00,WeatherDisplay:10.37,2013-01-03 13:20:00,
2013-01-03 08:25:00,11.1,8.0,30.18,South,177,0.0,0.0,87,0.00,CLR,,0.00,WeatherDisplay:10.37,2013-01-03 13:25:00,
2013-01-03 08:30:00,11.2,8.3,30.18,South,177,0.0,0.0,88,0.00,CLR,,0.00,WeatherDisplay:10.37,2013-01-03 13:30:00,
2013-01-03 08:35:00,11.4,8.5,30.18,South,177,0.0,0.0,88,0.00,CLR,,0.00,WeatherDisplay:10.37,2013-01-03 13:35:00,
2013-01-03 08:40:00,11.6,8.7,30.18,South,177,0.0,0.0,88,0.00,CLR,,0.00,WeatherDisplay:10.37,2013-01-03 13:40:00,
2013-01-03 08:45:00,11.8,8.9,30.17,South,177,0.0,0.0,88,0.00,CLR,,0.00,WeatherDisplay:10.37,2013-01-03 13:45:00,
2013-01-03 08:50:00,12.1,9.2,30.17,South,177,0.0,0.0,88,0.00,CLR,,0.00,WeatherDisplay:10.37,2013-01-03 13:50:00,
2013-01-03 08:55:00,12.4,9.5,30.17,SW,214,0.0,0.0,88,0.00,CLR,,0.00,WeatherDisplay:10.37,2013-01-03 13:55:00,
2013-01-03 09:00:00,12.8,9.9,30.17,SSW,203,0.0,0.0,88,0.00,CLR,,0.00,WeatherDisplay:10.37,2013-01-03 14:00:00,
2013-01-03 09:05:00,13.0,10.1,30.16,SSW,194,0.0,0.0,88,0.00,CLR,,0.00,WeatherDisplay:10.37,2013-01-03 14:05:00,
2013-01-03 09:10:00,13.3,10.2,30.16,SSE,150,0.0,0.0,87,0.00,CLR,,0.00,WeatherDisplay:10.37,2013-01-03 14:10:00,
2013-01-03 09:15:00,13.6,10.5,30.16,SE,138,0.0,0.0,87,0.00,CLR,,0.00,WeatherDisplay:10.37,2013-01-03 14:15:00,
2013-01-03 09:20:00,13.9,10.7,30.16,SSW,211,0.0,0.0,87,0.00,CLR,,0.00,WeatherDisplay:10.37,2013-01-03 14:20:00,
2013-01-03 09:25:00,14.1,10.9,30.16,SSE,152,0.0,0.0,87,0.00,CLR,,0.00,WeatherDisplay:10.37,2013-01-03 14:25:00,
2013-01-03 09:30:00,14.4,11.2,30.16,SSE,155,0.0,0.0,87,0.00,CLR,,0.00,WeatherDisplay:10.37,2013-01-03 14:30:00,
2013-01-03 09:35:00,14.8,11.6,30.16,SSE,162,0.0,0.0,87,0.00,CLR,,0.00,WeatherDisplay:10.37,2013-01-03 14:35:00,
2013-01-03 09:40:00,15.3,12.1,30.16,SSW,200,0.0,0.0,87,0.00,CLR,,0.00,WeatherDisplay:10.37,2013-01-03 14:40:00,
2013-01-03 09:45:00,15.9,12.7,30.16,SSW,205,0.0,0.0,87,0.00,CLR,,0.00,WeatherDisplay:10.37,2013-01-03 14:45:00,
2013-01-03 09:50:00,16.4,12.9,30.16,SE,136,0.0,0.0,86,0.00,CLR,,0.00,WeatherDisplay:10.37,2013-01-03 14:50:00,
2013-01-03 09:55:00,16.6,13.1,30.16,SE,132,0.0,0.0,86,0.00,CLR,,0.00,WeatherDisplay:10.37,2013-01-03 14:55:00,
2013-01-03 10:00:00,16.8,13.3,30.16,South,174,0.0,0.0,86,0.00,CLR,,0.00,WeatherDisplay:10.37,2013-01-03 15:00:00,
2013-01-03 10:05:00,17.1,13.6,30.16,SE,138,0.0,0.0,86,0.00,CLR,,0.00,WeatherDisplay:10.37,2013-01-03 15:05:00,
2013-01-03 10:10:00,17.6,13.9,30.16,ESE,110,0.0,0.0,85,0.00,CLR,,0.00,WeatherDisplay:10.37,2013-01-03 15:10:00,
2013-01-03 10:15:00,18.0,14.3,30.16,SSW,210,0.0,0.0,85,0.00,CLR,,0.00,WeatherDisplay:10.37,2013-01-03 15:15:00,
2013-01-03 10:20:00,18.4,14.6,30.16,SSW,200,0.0,0.0,85,0.00,CLR,,0.00,WeatherDisplay:10.37,2013-01-03 15:20:00,
2013-01-03 10:25:00,18.9,15.1,30.16,SW,214,0.0,0.0,85,0.00,CLR,,0.00,WeatherDisplay:10.37,2013-01-03 15:25:00,
2013-01-03 10:30:00,19.3,15.5,30.16,SSW,208,0.0,0.0,85,0.00,CLR,,0.00,WeatherDisplay:10.37,2013-01-03 15:30:00,
2013-01-03 10:35:00,20.0,16.2,30.16,SE,142,0.0,0.0,85,0.00,CLR,,0.00,WeatherDisplay:10.37,2013-01-03 15:35:00,
2013-01-03 10:40:00,20.3,16.2,30.15,SE,135,0.0,0.0,84,0.00,CLR,,0.00,WeatherDisplay:10.37,2013-01-03 15:40:00,
2013-01-03 10:45:00,20.9,16.8,30.15,SE,139,0.0,0.0,84,0.00,CLR,,0.00,WeatherDisplay:10.37,2013-01-03 15:45:00,
2013-01-03 10:51:00,21.4,17.0,30.15,SE,138,0.0,0.0,83,0.00,CLR,,0.00,WeatherDisplay:10.37,2013-01-03 15:51:00,
2013-01-03 10:56:00,21.9,17.5,30.15,SE,125,0.0,0.0,83,0.00,CLR,,0.00,WeatherDisplay:10.37,2013-01-03 15:56:00,
2013-01-03 11:01:00,22.5,18.1,30.14,SE,127,0.0,0.0,83,0.00,CLR,,0.00,WeatherDisplay:10.37,2013-01-03 16:01:00,
2013-01-03 11:06:00,23.1,18.4,30.14,SSE,153,0.0,0.0,82,0.00,CLR,,0.00,WeatherDisplay:10.37,2013-01-03 16:06:00,
2013-01-03 11:11:00,23.5,18.8,30.14,SSE,153,0.0,0.0,82,0.00,CLR,,0.00,WeatherDisplay:10.37,2013-01-03 16:11:00,
2013-01-03 11:16:00,23.8,18.8,30.13,WSW,255,0.0,0.0,81,0.00,CLR,,0.00,WeatherDisplay:10.37,2013-01-03 16:16:00,
2013-01-03 11:21:00,23.9,19.2,30.13,SW,226,0.0,0.0,82,0.00,CLR,,0.00,WeatherDisplay:10.37,2013-01-03 16:21:00,
2013-01-03 11:26:00,23.8,19.1,30.13,WSW,238,0.0,0.0,82,0.00,CLR,,0.00,WeatherDisplay:10.37,2013-01-03 16:26:00,
2013-01-03 11:31:00,24.2,19.5,30.12,SSW,203,0.0,0.0,82,0.00,CLR,,0.00,WeatherDisplay:10.37,2013-01-03 16:31:00,
2013-01-03 11:36:00,24.4,19.4,30.12,ESE,119,0.0,0.0,81,0.00,CLR,,0.00,WeatherDisplay:10.37,2013-01-03 16:36:00,
2013-01-03 11:41:00,24.4,19.4,30.11,SE,139,0.0,0.0,81,0.00,CLR,,0.00,WeatherDisplay:10.37,2013-01-03 16:41:00,
2013-01-03 11:46:00,24.4,19.7,30.11,ESE,118,0.0,0.0,82,0.00,CLR,,0.00,WeatherDisplay:10.37,2013-01-03 16:46:00,
2013-01-03 11:51:00,24.9,19.9,30.11,ESE,119,0.0,0.0,81,0.00,CLR,,0.00,WeatherDisplay:10.37,2013-01-03 16:51:00,
2013-01-03 11:56:00,25.2,20.2,30.10,SSE,155,0.0,0.0,81,0.00,CLR,,0.00,WeatherDisplay:10.37,2013-01-03 16:56:00,
2013-01-03 12:01:00,25.5,20.5,30.10,ESE,110,0.0,0.0,81,0.00,CLR,,0.00,WeatherDisplay:10.37,2013-01-03 17:01:00,
2013-01-03 12:06:00,25.8,20.8,30.10,SE,127,0.0,0.0,81,0.00,CLR,,0.00,WeatherDisplay:10.37,2013-01-03 17:06:00,
2013-01-03 12:11:00,25.9,20.9,30.10,SSE,157,0.0,0.0,81,0.00,CLR,,0.00,WeatherDisplay:10.37,2013-01-03 17:11:00,
2013-01-03 12:16:00,26.1,21.1,30.09,SSW,196,0.0,0.0,81,0.00,CLR,,0.00,WeatherDisplay:10.37,2013-01-03 17:16:00,
2013-01-03 12:21:00,26.0,21.0,30.09,SSE,153,0.0,0.0,81,0.00,CLR,,0.00,WeatherDisplay:10.37,2013-01-03 17:21:00,
2013-01-03 12:26:00,26.2,21.2,30.09,SW,231,0.0,0.0,81,0.00,CLR,,0.00,WeatherDisplay:10.37,2013-01-03 17:26:00,
2013-01-03 12:31:00,26.3,21.6,30.08,SW,232,0.0,0.0,82,0.00,CLR,,0.00,WeatherDisplay:10.37,2013-01-03 17:31:00,
2013-01-03 12:36:00,26.6,21.6,30.08,ESE,120,0.0,0.0,81,0.00,CLR,,0.00,WeatherDisplay:10.37,2013-01-03 17:36:00,
2013-01-03 12:41:00,26.7,21.7,30.07,South,172,0.0,0.0,81,0.00,CLR,,0.00,WeatherDisplay:10.37,2013-01-03 17:41:00,
2013-01-03 12:47:00,27.0,22.2,30.07,SW,225,0.0,0.0,82,0.00,CLR,,0.00,WeatherDisplay:10.37,2013-01-03 17:47:00,
2013-01-03 12:52:00,27.2,22.4,30.07,SW,230,0.0,0.0,82,0.00,CLR,,0.00,WeatherDisplay:10.37,2013-01-03 17:52:00,
2013-01-03 12:57:00,27.4,22.3,30.06,SE,141,0.0,0.0,81,0.00,CLR,,0.00,WeatherDisplay:10.37,2013-01-03 17:57:00,
2013-01-03 13:02:00,27.4,22.6,30.06,SSW,201,0.0,0.0,82,0.00,CLR,,0.00,WeatherDisplay:10.37,2013-01-03 18:02:00,
2013-01-03 13:07:00,27.5,23.0,30.06,South,169,0.0,0.0,83,0.00,CLR,,0.00,WeatherDisplay:10.37,2013-01-03 18:07:00,
2013-01-03 13:12:00,27.7,23.2,30.06,SW,225,0.0,0.0,83,0.00,CLR,,0.00,WeatherDisplay:10.37,2013-01-03 18:12:00,
2013-01-03 13:17:00,27.7,23.2,30.06,SE,125,0.0,0.0,83,0.00,CLR,,0.00,WeatherDisplay:10.37,2013-01-03 18:17:00,
2013-01-03 13:22:00,27.7,23.2,30.05,SW,219,0.0,0.0,83,0.00,CLR,,0.00,WeatherDisplay:10.37,2013-01-03 18:22:00,
2013-01-03 13:27:00,27.7,23.5,30.05,WSW,253,0.0,0.0,84,0.00,CLR,,0.00,WeatherDisplay:10.37,2013-01-03 18:27:00,
2013-01-03 13:32:00,27.5,23.3,30.05,SSE,165,0.0,0.0,84,0.00,CLR,,0.00,WeatherDisplay:10.37,2013-01-03 18:32:00,
2013-01-03 13:37:00,27.5,23.3,30.04,ESE,112,0.0,0.0,84,0.00,CLR,,0.00,WeatherDisplay:10.37,2013-01-03 18:37:00,
2013-01-03 13:42:00,27.4,23.2,30.04,South,188,0.0,0.0,84,0.00,CLR,,0.00,WeatherDisplay:10.37,2013-01-03 18:42:00,
2013-01-03 13:47:00,27.4,23.5,30.04,South,190,0.0,0.0,85,0.00,CLR,,0.00,WeatherDisplay:10.37,2013-01-03 18:47:00,
2013-01-03 13:52:00,27.5,23.6,30.04,WSW,251,0.0,0.0,85,0.00,CLR,,0.00,WeatherDisplay:10.37,2013-01-03 18:52:00,
2013-01-03 13:57:00,27.5,23.6,30.03,SE,145,0.0,0.0,85,0.00,CLR,,0.00,WeatherDisplay:10.37,2013-01-03 18:57:00,
2013-01-03 14:02:00,27.8,23.9,30.03,SSW,205,0.0,0.0,85,0.00,CLR,,0.00,WeatherDisplay:10.37,2013-01-03 19:02:00,
2013-01-03 14:07:00,28.0,24.1,30.03,SSW,201,0.0,0.0,85,0.00,CLR,,0.00,WeatherDisplay:10.37,2013-01-03 19:07:00,
2013-01-03 14:12:00,28.0,24.1,30.03,SSE,151,0.0,0.0,85,0.00,CLR,,0.00,WeatherDisplay:10.37,2013-01-03 19:12:00,
2013-01-03 14:17:00,27.9,24.0,30.03,South,190,0.0,0.0,85,0.00,CLR,,0.00,WeatherDisplay:10.37,2013-01-03 19:17:00,
2013-01-03 14:55:00,28.1,24.2,30.02,SSE,153,0.0,0.0,85,0.00,CLR,,0.00,WeatherDisplay:10.37,2013-01-03 19:55:00,
2013-01-03 15:00:00,28.1,23.9,30.02,SW,225,0.0,0.0,84,0.00,CLR,,0.00,WeatherDisplay:10.37,2013-01-03 20:00:00,
2013-01-03 15:05:00,28.0,23.8,30.02,SSW,205,0.0,0.0,84,0.00,CLR,,0.00,WeatherDisplay:10.37,2013-01-03 20:05:00,
2013-01-03 15:10:00,27.9,23.7,30.02,SSW,204,0.0,0.0,84,0.00,CLR,,0.00,WeatherDisplay:10.37,2013-01-03 20:10:00,
2013-01-03 15:15:00,27.9,23.7,30.02,South,169,0.0,0.0,84,0.00,CLR,,0.00,WeatherDisplay:10.37,2013-01-03 20:15:00,
2013-01-03 15:20:00,27.8,23.6,30.02,South,184,0.0,0.0,84,0.00,CLR,,0.00,WeatherDisplay:10.37,2013-01-03 20:20:00,
2013-01-03 15:25:00,27.7,23.5,30.02,WSW,246,0.0,0.0,84,0.00,CLR,,0.00,WeatherDisplay:10.37,2013-01-03 20:25:00,
2013-01-03 15:30:00,27.7,23.5,30.02,SW,228,0.0,0.0,84,0.00,CLR,,0.00,WeatherDisplay:10.37,2013-01-03 20:30:00,
2013-01-03 15:35:00,27.8,23.3,30.02,SSW,206,0.0,0.0,83,0.00,CLR,,0.00,WeatherDisplay:10.37,2013-01-03 20:35:00,
2013-01-03 15:40:00,27.8,23.3,30.02,SSW,198,0.0,0.0,83,0.00,CLR,,0.00,WeatherDisplay:10.37,2013-01-03 20:40:00,
2013-01-03 15:45:00,28.0,23.5,30.02,ESE,103,0.0,0.0,83,0.00,CLR,,0.00,WeatherDisplay:10.37,2013-01-03 20:45:00,
2013-01-03 15:50:00,27.9,23.4,30.02,West,269,0.0,0.0,83,0.00,CLR,,0.00,WeatherDisplay:10.37,2013-01-03 20:50:00,
2013-01-03 15:55:00,28.0,23.2,30.02,SW,236,0.0,0.0,82,0.00,CLR,,0.00,WeatherDisplay:10.37,2013-01-03 20:55:00,
2013-01-03 16:00:00,28.0,23.2,30.02,WSW,238,0.0,0.0,82,0.00,CLR,,0.00,WeatherDisplay:10.37,2013-01-03 21:00:00,
2013-01-03 16:05:00,28.0,23.2,30.02,SSW,211,0.0,0.0,82,0.00,CLR,,0.00,WeatherDisplay:10.37,2013-01-03 21:05:00,
2013-01-03 16:10:00,28.0,22.9,30.02,WSW,238,0.0,0.0,81,0.00,CLR,,0.00,WeatherDisplay:10.37,2013-01-03 21:10:00,
2013-01-03 16:15:00,28.0,23.2,30.02,SSW,201,0.0,0.0,82,0.00,CLR,,0.00,WeatherDisplay:10.37,2013-01-03 21:15:00,
2013-01-03 16:21:00,28.0,23.2,30.02,WSW,240,0.0,0.0,82,0.00,CLR,,0.00,WeatherDisplay:10.37,2013-01-03 21:21:00,
2013-01-03 16:26:00,28.0,22.9,30.01,WSW,243,0.0,0.0,81,0.00,CLR,,0.00,WeatherDisplay:10.37,2013-01-03 21:26:00,
2013-01-03 16:32:00,27.9,23.1,30.01,WSW,239,0.0,0.0,82,0.00,CLR,,0.00,WeatherDisplay:10.37,2013-01-03 21:32:00,
2013-01-03 16:37:00,27.8,23.0,30.01,SW,228,0.0,0.0,82,0.00,CLR,,0.00,WeatherDisplay:10.37,2013-01-03 21:37:00,
2013-01-03 16:43:00,27.8,23.0,30.01,ESE,117,0.0,0.0,82,0.00,CLR,,0.00,WeatherDisplay:10.37,2013-01-03 21:43:00,
2013-01-03 16:48:00,27.7,22.9,30.01,SW,228,0.0,0.0,82,0.00,CLR,,0.00,WeatherDisplay:10.37,2013-01-03 21:48:00,
2013-01-03 16:53:00,27.8,23.3,30.01,SW,222,0.0,0.0,83,0.00,CLR,,0.00,WeatherDisplay:10.37,2013-01-03 21:53:00,
2013-01-03 16:58:00,27.7,23.2,30.01,WSW,243,0.0,0.0,83,0.00,CLR,,0.00,WeatherDisplay:10.37,2013-01-03 21:58:00,
2013-01-03 17:03:00,27.7,23.2,30.01,SE,124,1.0,1.0,83,0.00,,,0.00,WeatherDisplay:10.37,2013-01-03 22:03:00,
2013-01-03 17:08:00,27.7,23.2,30.01,WSW,239,3.5,0.0,83,0.00,,,0.00,WeatherDisplay:10.37,2013-01-03 22:08:00,
2013-01-03 17:13:00,27.7,23.5,30.01,SSE,155,0.0,0.0,84,0.00,,,0.00,WeatherDisplay:10.37,2013-01-03 22:13:00,
2013-01-03 17:18:00,27.5,23.3,30.01,WSW,240,0.0,0.0,84,0.00,,,0.00,WeatherDisplay:10.37,2013-01-03 22:18:00,
2013-01-03 17:23:00,27.5,23.3,30.02,SSW,194,0.0,0.0,84,0.00,,,0.00,WeatherDisplay:10.37,2013-01-03 22:23:00,
2013-01-03 17:28:00,27.5,23.3,30.02,West,266,1.1,1.1,84,0.00,,,0.00,WeatherDisplay:10.37,2013-01-03 22:28:00,
2013-01-03 17:33:00,27.5,23.3,30.02,SSE,158,0.0,0.0,84,0.00,,,0.00,WeatherDisplay:10.37,2013-01-03 22:33:00,
2013-01-03 17:38:00,27.5,23.3,30.02,WSW,250,1.1,1.1,84,0.00,,,0.00,WeatherDisplay:10.37,2013-01-03 22:38:00,
2013-01-03 17:43:00,27.5,23.6,30.02,West,262,2.3,2.3,85,0.00,,,0.00,WeatherDisplay:10.37,2013-01-03 22:43:00,
2013-01-03 17:48:00,27.5,23.6,30.02,SSW,197,0.0,0.0,85,0.00,,,0.00,WeatherDisplay:10.37,2013-01-03 22:48:00,
2013-01-03 17:53:00,27.4,23.5,30.02,SW,215,0.0,0.0,85,0.00,,,0.00,WeatherDisplay:10.37,2013-01-03 22:53:00,
2013-01-03 17:58:00,27.5,23.6,30.01,West,274,3.5,3.5,85,0.00,,,0.00,WeatherDisplay:10.37,2013-01-03 22:58:00,
2013-01-03 18:03:00,27.7,23.5,30.02,WSW,256,1.1,0.0,84,0.00,,,0.00,WeatherDisplay:10.37,2013-01-03 23:03:00,
2013-01-03 18:08:00,27.8,23.3,30.01,ESE,105,4.0,4.0,83,0.00,,,0.00,WeatherDisplay:10.37,2013-01-03 23:08:00,
2013-01-03 18:13:00,27.9,23.4,30.01,East,99,3.5,3.5,83,0.00,,,0.00,WeatherDisplay:10.37,2013-01-03 23:13:00,
2013-01-03 18:18:00,28.0,23.5,30.01,ESE,113,3.5,3.5,83,0.00,,,0.00,WeatherDisplay:10.37,2013-01-03 23:18:00,
2013-01-03 18:23:00,28.1,23.6,30.01,West,265,4.6,4.6,83,0.00,,,0.00,WeatherDisplay:10.37,2013-01-03 23:23:00,
2013-01-03 18:28:00,28.1,23.6,30.01,SSE,148,3.5,3.5,83,0.00,,,0.00,WeatherDisplay:10.37,2013-01-03 23:28:00,
2013-01-03 18:33:00,28.1,23.9,30.02,West,264,1.1,0.0,84,0.00,,,0.00,WeatherDisplay:10.37,2013-01-03 23:33:00,
2013-01-03 18:38:00,28.2,24.0,30.02,West,269,5.8,5.8,84,0.00,,,0.00,WeatherDisplay:10.37,2013-01-03 23:38:00,
2013-01-03 18:43:00,28.3,24.4,30.02,West,273,2.3,0.0,85,0.00,,,0.00,WeatherDisplay:10.37,2013-01-03 23:43:00,
2013-01-03 18:48:00,28.2,24.6,30.01,NW,313,3.5,3.5,86,0.00,,,0.00,WeatherDisplay:10.37,2013-01-03 23:48:00,
2013-01-03 18:53:00,28.1,24.5,30.02,SSE,162,1.1,1.1,86,0.00,,,0.00,WeatherDisplay:10.37,2013-01-03 23:53:00,
2013-01-03 18:58:00,28.1,24.7,30.02,West,269,1.1,0.0,87,0.00,,,0.00,WeatherDisplay:10.37,2013-01-03 23:58:00,
2013-01-03 19:03:00,28.1,25.0,30.02,West,280,3.5,3.5,88,0.00,,,0.00,WeatherDisplay:10.37,2013-01-04 00:03:00,
2013-01-03 19:08:00,28.1,25.0,30.02,WSW,258,0.0,0.0,88,0.00,,,0.00,WeatherDisplay:10.37,2013-01-04 00:08:00,
2013-01-03 19:13:00,28.1,25.3,30.02,NW,309,5.8,5.8,89,0.00,,,0.00,WeatherDisplay:10.37,2013-01-04 00:13:00,
2013-01-03 19:18:00,28.1,25.3,30.02,East,79,2.3,2.3,89,0.00,,,0.00,WeatherDisplay:10.37,2013-01-04 00:18:00,
2013-01-03 19:23:00,28.0,25.2,30.02,WNW,282,3.5,3.5,89,0.00,,,0.00,WeatherDisplay:10.37,2013-01-04 00:23:00,
2013-01-03 19:28:00,28.0,25.2,30.02,WSW,251,1.1,1.1,89,0.00,,,0.00,WeatherDisplay:10.37,2013-01-04 00:28:00,
2013-01-03 19:33:00,28.1,25.3,30.02,WSW,253,3.5,3.5,89,0.00,,,0.00,WeatherDisplay:10.37,2013-01-04 00:33:00,
2013-01-03 19:38:00,28.1,25.3,30.02,NE,40,2.3,2.3,89,0.00,,,0.00,WeatherDisplay:10.37,2013-01-04 00:38:00,
2013-01-03 19:43:00,28.1,25.3,30.02,NE,42,1.1,1.1,89,0.00,,,0.00,WeatherDisplay:10.37,2013-01-04 00:43:00,
2013-01-03 19:48:00,28.1,25.3,30.02,WSW,257,2.3,2.3,89,0.00,,,0.00,WeatherDisplay:10.37,2013-01-04 00:48:00,
2013-01-03 19:53:00,28.2,25.6,30.03,WSW,239,5.8,5.8,90,0.00,,,0.00,WeatherDisplay:10.37,2013-01-04 00:53:00,
2013-01-03 19:58:00,28.2,25.6,30.03,ESE,104,2.3,0.0,90,0.00,,,0.00,WeatherDisplay:10.37,2013-01-04 00:58:00,
2013-01-03 20:03:00,28.2,25.6,30.03,WSW,242,0.0,0.1,90,0.00,,,0.00,WeatherDisplay:10.37,2013-01-04 01:03:00,
2013-01-03 20:08:00,28.2,25.6,30.03,West,262,3.5,3.5,90,0.00,,,0.00,WeatherDisplay:10.37,2013-01-04 01:08:00,
2013-01-03 20:14:00,28.3,25.7,30.03,NNE,26,2.3,2.3,90,0.00,,,0.00,WeatherDisplay:10.37,2013-01-04 01:14:00,
2013-01-03 20:19:00,28.3,25.7,30.03,WSW,238,3.5,3.5,90,0.00,,,0.00,WeatherDisplay:10.37,2013-01-04 01:19:00,
2013-01-03 20:24:00,28.3,25.7,30.03,NW,307,0.0,0.0,90,0.00,,,0.00,WeatherDisplay:10.37,2013-01-04 01:24:00,
2013-01-03 20:29:00,28.4,25.8,30.03,North,359,1.1,0.0,90,0.00,,,0.00,WeatherDisplay:10.37,2013-01-04 01:29:00,
2013-01-03 20:34:00,28.4,25.6,30.03,WNW,302,5.8,5.8,89,0.00,,,0.00,WeatherDisplay:10.37,2013-01-04 01:34:00,
2013-01-03 20:39:00,28.5,25.7,30.03,SW,221,2.3,2.3,89,0.00,,,0.00,WeatherDisplay:10.37,2013-01-04 01:39:00,
2013-01-03 20:44:00,28.6,25.8,30.03,South,169,0.0,0.0,89,0.00,,,0.00,WeatherDisplay:10.37,2013-01-04 01:44:00,
2013-01-03 20:49:00,28.6,25.8,30.03,West,264,0.0,0.0,89,0.00,,,0.00,WeatherDisplay:10.37,2013-01-04 01:49:00,
2013-01-03 20:54:00,28.6,25.8,30.03,SW,231,0.0,0.2,89,0.00,,,0.00,WeatherDisplay:10.37,2013-01-04 01:54:00,
2013-01-03 20:59:00,28.7,25.6,30.03,WSW,253,1.1,1.1,88,0.00,,,0.00,WeatherDisplay:10.37,2013-01-04 01:59:00,
2013-01-03 21:04:00,28.8,25.7,30.03,ENE,62,3.5,3.5,88,0.00,,,0.00,WeatherDisplay:10.37,2013-01-04 02:04:00,
2013-01-03 21:09:00,28.8,25.7,30.02,WSW,258,2.3,2.3,88,0.00,,,0.00,WeatherDisplay:10.37,2013-01-04 02:09:00,
2013-01-03 21:14:00,28.7,25.6,30.02,WSW,243,1.1,1.1,88,0.00,,,0.00,WeatherDisplay:10.37,2013-01-04 02:14:00,
2013-01-03 21:19:00,28.7,25.6,30.03,WNW,299,1.1,0.0,88,0.00,,,0.00,WeatherDisplay:10.37,2013-01-04 02:19:00,
2013-01-03 21:24:00,28.7,25.9,30.02,West,266,0.0,0.0,89,0.00,,,0.00,WeatherDisplay:10.37,2013-01-04 02:24:00,
2013-01-03 21:29:00,28.6,25.5,30.03,WSW,249,3.5,3.5,88,0.00,,,0.00,WeatherDisplay:10.37,2013-01-04 02:29:00,
2013-01-03 21:34:00,28.8,25.7,30.03,West,274,3.5,3.5,88,0.00,,,0.00,WeatherDisplay:10.37,2013-01-04 02:34:00,
2013-01-03 21:39:00,28.9,25.5,30.03,SW,235,3.5,3.5,87,0.00,,,0.00,WeatherDisplay:10.37,2013-01-04 02:39:00,
2013-01-03 21:44:00,28.9,25.5,30.03,SW,222,1.1,1.1,87,0.00,,,0.00,WeatherDisplay:10.37,2013-01-04 02:44:00,
2013-01-03 21:49:00,29.0,25.3,30.03,WNW,290,2.3,2.3,86,0.00,,,0.00,WeatherDisplay:10.37,2013-01-04 02:49:00,
2013-01-03 21:54:00,29.0,25.3,30.03,SSW,202,1.1,1.1,86,0.00,,,0.00,WeatherDisplay:10.37,2013-01-04 02:54:00,
2013-01-03 21:59:00,29.0,25.3,30.03,WSW,242,2.3,2.3,86,0.00,,,0.00,WeatherDisplay:10.37,2013-01-04 02:59:00,
2013-01-03 22:04:00,29.0,25.1,30.03,ENE,71,8.1,8.1,85,0.00,,,0.00,WeatherDisplay:10.37,2013-01-04 03:04:00,
2013-01-03 22:09:00,29.1,24.9,30.03,WSW,243,3.5,3.5,84,0.00,,,0.00,WeatherDisplay:10.37,2013-01-04 03:09:00,
2013-01-03 22:14:00,29.1,24.9,30.03,NE,53,1.1,1.1,84,0.00,,,0.00,WeatherDisplay:10.37,2013-01-04 03:14:00,
2013-01-03 22:19:00,29.0,25.1,30.03,WNW,288,1.1,0.0,85,0.00,,,0.00,WeatherDisplay:10.37,2013-01-04 03:19:00,
2013-01-03 22:24:00,29.0,25.1,30.03,West,278,1.1,0.0,85,0.00,,,0.00,WeatherDisplay:10.37,2013-01-04 03:24:00,
2013-01-03 22:29:00,29.1,24.9,30.03,West,259,4.0,4.0,84,0.00,,,0.00,WeatherDisplay:10.37,2013-01-04 03:29:00,
2013-01-03 22:34:00,29.1,25.2,30.03,WNW,287,1.1,1.1,85,0.00,,,0.00,WeatherDisplay:10.37,2013-01-04 03:34:00,
2013-01-03 22:39:00,29.0,24.8,30.03,WNW,282,4.6,4.6,84,0.00,,,0.00,WeatherDisplay:10.37,2013-01-04 03:39:00,
2013-01-03 22:44:00,29.1,24.9,30.03,West,281,2.3,2.3,84,0.00,,,0.00,WeatherDisplay:10.37,2013-01-04 03:44:00,
2013-01-03 22:49:00,29.0,25.1,30.02,NNW,337,2.0,2.0,85,0.00,,,0.00,WeatherDisplay:10.37,2013-01-04 03:49:00,
2013-01-03 22:54:00,29.0,24.8,30.02,NW,321,1.1,1.1,84,0.00,,,0.00,WeatherDisplay:10.37,2013-01-04 03:54:00,
2013-01-03 22:59:00,29.1,24.9,30.02,West,271,1.1,1.1,84,0.00,,,0.00,WeatherDisplay:10.37,2013-01-04 03:59:00,
2013-01-03 23:04:00,29.0,24.8,30.02,ENE,64,2.3,2.3,84,0.00,,,0.00,WeatherDisplay:10.37,2013-01-04 04:04:00,
2013-01-03 23:09:00,29.0,24.8,30.02,NE,34,4.0,4.0,84,0.00,,,0.00,WeatherDisplay:10.37,2013-01-04 04:09:00,
2013-01-03 23:14:00,29.0,24.8,30.02,East,83,4.6,4.6,84,0.00,,,0.00,WeatherDisplay:10.37,2013-01-04 04:14:00,
2013-01-03 23:19:00,29.0,24.8,30.02,WNW,291,4.6,4.6,84,0.00,,,0.00,WeatherDisplay:10.37,2013-01-04 04:19:00,
2013-01-03 23:24:00,29.0,24.8,30.02,WNW,285,1.1,1.1,84,0.00,,,0.00,WeatherDisplay:10.37,2013-01-04 04:24:00,
2013-01-03 23:29:00,29.0,24.8,30.02,SSW,195,1.1,1.1,84,0.00,,,0.00,WeatherDisplay:10.37,2013-01-04 04:29:00,
2013-01-03 23:35:00,29.0,24.8,30.02,WSW,252,5.8,5.8,84,0.00,,,0.00,WeatherDisplay:10.37,2013-01-04 04:35:00,
2013-01-03 23:40:00,29.0,24.8,30.02,WNW,287,4.6,4.6,84,0.00,,,0.00,WeatherDisplay:10.37,2013-01-04 04:40:00,
2013-01-03 23:45:00,29.0,24.8,30.02,NNE,13,4.6,4.6,84,0.00,,,0.00,WeatherDisplay:10.37,2013-01-04 04:45:00,
2013-01-03 23:50:00,28.9,24.7,30.02,NNW,333,3.5,3.5,84,0.00,,,0.00,WeatherDisplay:10.37,2013-01-04 04:50:00,
2013-01-03 23:55:00,28.9,24.7,30.02,WSW,257,3.5,3.5,84,0.00,,,0.00,WeatherDisplay:10.37,2013-01-04 04:55:00,